Time;durP1;ratioP1;P1;durP2;ratioP2;P2;SDS_P1;SDS_P2;PMS_P1;PMS_P2;Temp;Humidity;BMP_temperature;BMP_pressure;BME280_temperature;BME280_humidity;BME280_pressure;Samples;Min_cycle;Max_cycle;Signal;HPM_P1;HPM_P2
2021/05/10 00:00:35;;;;;;;4.05;2.45;;;;;;;;;;5062524;28;20201;-79
2021/05/10 00:03:01;;;;;;;3.00;2.30;;;;;;;;;;5034506;28;20252;-79
2021/05/10 00:05:27;;;;;;;3.15;2.22;;;;;;;;;;5039285;28;20185;-80
2021/05/10 00:07:53;;;;;;;6.95;2.45;;;;;;;;;;5033063;28;20208;-80
2021/05/10 00:10:20;;;;;;;3.95;2.30;;;;;;;;;;5030425;28;20181;-81
2021/05/10 00:12:46;;;;;;;6.32;2.47;;;;;;;;;;5034624;28;20194;-82
2021/05/10 00:15:12;;;;;;;5.75;1.92;;;;;;;;;;5054577;28;20274;-80
2021/05/10 00:17:38;;;;;;;8.68;3.15;;;;;;;;;;5035823;28;20200;-80
2021/05/10 00:20:05;;;;;;;2.93;2.30;;;;;;;;;;5036197;28;20183;-82
2021/05/10 00:22:31;;;;;;;4.07;2.25;;;;;;;;;;5045298;28;20464;-79
2021/05/10 00:24:57;;;;;;;5.27;2.50;;;;;;;;;;5033575;28;20187;-78
2021/05/10 00:27:23;;;;;;;3.42;2.40;;;;;;;;;;5046524;28;20535;-80
2021/05/10 00:29:49;;;;;;;4.00;2.00;;;;;;;;;;5044285;28;20750;-80
2021/05/10 00:32:15;;;;;;;4.05;2.20;;;;;;;;;;5041745;28;20460;-80
2021/05/10 00:34:41;;;;;;;4.30;2.00;;;;;;;;;;5045065;28;20653;-81
2021/05/10 00:37:07;;;;;;;7.55;2.85;;;;;;;;;;5044691;28;20181;-83
2021/05/10 00:39:33;;;;;;;10.47;2.63;;;;;;;;;;5062313;28;20182;-80
2021/05/10 00:41:59;;;;;;;2.13;1.88;;;;;;;;;;5055262;28;20437;-81
2021/05/10 00:44:25;;;;;;;3.10;2.30;;;;;;;;;;5037381;28;20283;-79
2021/05/10 00:46:54;;;;;;;2.30;1.73;;;;;;;;;;5033416;28;20185;-83
2021/05/10 00:49:21;;;;;;;2.42;1.95;;;;;;;;;;5059988;28;20542;-82
2021/05/10 00:51:47;;;;;;;1.80;1.70;;;;;;;;;;5033900;28;20206;-81
2021/05/10 00:54:13;;;;;;;3.83;2.00;;;;;;;;;;5053455;28;20240;-82
2021/05/10 00:56:39;;;;;;;3.40;1.73;;;;;;;;;;5034819;28;20179;-81
2021/05/10 00:59:06;;;;;;;1.85;1.75;;;;;;;;;;5032029;28;20455;-83
2021/05/10 01:01:32;;;;;;;3.65;1.90;;;;;;;;;;5044267;28;20182;-80
2021/05/10 01:03:58;;;;;;;3.00;1.70;;;;;;;;;;5044274;28;20194;-79
2021/05/10 01:06:24;;;;;;;1.92;1.67;;;;;;;;;;5046199;28;20179;-81
2021/05/10 01:08:50;;;;;;;4.57;2.17;;;;;;;;;;5038012;28;20741;-80
2021/05/10 01:11:16;;;;;;;2.13;1.67;;;;;;;;;;5037307;28;20191;-80
2021/05/10 01:13:43;;;;;;;3.05;2.30;;;;;;;;;;5056983;28;20468;-80
2021/05/10 01:16:09;;;;;;;5.07;2.30;;;;;;;;;;5032644;28;20186;-81
2021/05/10 01:18:35;;;;;;;3.65;2.20;;;;;;;;;;5029865;28;20206;-81
2021/05/10 01:21:02;;;;;;;2.17;1.80;;;;;;;;;;5035228;28;20254;-80
2021/05/10 01:23:29;;;;;;;2.65;2.30;;;;;;;;;;5036268;28;20206;-79
2021/05/10 01:25:55;;;;;;;2.80;2.08;;;;;;;;;;5043834;28;20367;-79
2021/05/10 01:28:21;;;;;;;2.55;2.22;;;;;;;;;;5032932;28;20214;-80
2021/05/10 01:30:51;;;;;;;3.05;2.30;;;;;;;;;;5034644;28;20606;-79
2021/05/10 01:33:18;;;;;;;4.10;2.95;;;;;;;;;;5038530;28;20195;-81
2021/05/10 01:35:45;;;;;;;3.08;2.10;;;;;;;;;;5037499;28;20185;-80
2021/05/10 01:38:11;;;;;;;2.20;1.95;;;;;;;;;;5039949;28;20547;-81
2021/05/10 01:40:37;;;;;;;2.75;2.20;;;;;;;;;;5031619;28;20262;-81
2021/05/10 01:43:04;;;;;;;5.05;2.60;;;;;;;;;;5026618;28;20194;-79
2021/05/10 01:45:30;;;;;;;11.68;3.30;;;;;;;;;;5035924;28;20358;-80
2021/05/10 01:47:59;;;;;;;2.42;2.22;;;;;;;;;;5035611;28;20214;-81
2021/05/10 01:50:25;;;;;;;2.40;2.20;;;;;;;;;;5040576;28;20198;-80
2021/05/10 01:52:52;;;;;;;3.22;2.03;;;;;;;;;;5058629;28;20201;-80
2021/05/10 01:55:18;;;;;;;2.50;2.30;;;;;;;;;;5042044;28;20185;-80
2021/05/10 01:57:48;;;;;;;4.07;2.70;;;;;;;;;;5044501;28;20170;-79
2021/05/10 02:00:16;;;;;;;2.47;2.20;;;;;;;;;;5034903;28;20170;-80
2021/05/10 02:02:43;;;;;;;4.05;2.25;;;;;;;;;;5036545;28;20196;-80
2021/05/10 02:05:14;;;;;;;2.33;2.10;;;;;;;;;;5036156;28;20258;-80
2021/05/10 02:07:41;;;;;;;4.40;2.50;;;;;;;;;;5058757;28;20179;-81
2021/05/10 02:10:09;;;;;;;2.75;2.28;;;;;;;;;;5030547;28;20221;-81
2021/05/10 02:12:35;;;;;;;4.22;2.05;;;;;;;;;;5036813;28;20262;-81
2021/05/10 02:15:01;;;;;;;3.13;2.13;;;;;;;;;;5041256;28;20197;-82
2021/05/10 02:17:27;;;;;;;2.75;2.25;;;;;;;;;;5042888;28;20202;-80
2021/05/10 02:19:53;;;;;;;3.15;2.40;;;;;;;;;;5032545;28;20336;-80
2021/05/10 02:22:19;;;;;;;2.22;1.98;;;;;;;;;;5058117;28;20664;-79
2021/05/10 02:24:45;;;;;;;2.53;2.33;;;;;;;;;;5042669;28;20248;-80
2021/05/10 02:27:11;;;;;;;2.20;2.00;;;;;;;;;;5043358;28;20198;-81
2021/05/10 02:29:37;;;;;;;3.03;2.40;;;;;;;;;;5057631;28;20562;-81
2021/05/10 02:32:03;;;;;;;2.45;2.25;;;;;;;;;;5042766;28;20182;-79
2021/05/10 02:34:29;;;;;;;2.60;2.40;;;;;;;;;;5042608;28;20264;-79
2021/05/10 02:36:55;;;;;;;3.33;2.50;;;;;;;;;;5030861;28;20185;-80
2021/05/10 02:39:21;;;;;;;3.22;2.92;;;;;;;;;;5035658;28;20170;-81
2021/05/10 02:41:47;;;;;;;2.90;2.53;;;;;;;;;;5034463;28;20206;-81
2021/05/10 02:44:13;;;;;;;3.38;3.00;;;;;;;;;;5034104;28;20674;-81
2021/05/10 02:46:39;;;;;;;2.75;2.55;;;;;;;;;;5043340;28;20185;-79
2021/05/10 02:49:05;;;;;;;3.72;2.45;;;;;;;;;;5042320;28;20192;-79
2021/05/10 02:51:31;;;;;;;2.37;2.10;;;;;;;;;;5044621;28;20177;-80
2021/05/10 02:53:57;;;;;;;2.35;1.85;;;;;;;;;;5034179;28;20460;-81
2021/05/10 02:56:23;;;;;;;3.00;2.47;;;;;;;;;;5039795;28;20200;-80
2021/05/10 02:58:49;;;;;;;6.43;2.58;;;;;;;;;;5031268;28;20440;-82
2021/05/10 03:01:15;;;;;;;2.70;1.85;;;;;;;;;;5031458;28;20191;-81
2021/05/10 03:03:41;;;;;;;2.85;2.33;;;;;;;;;;5033257;28;20182;-83
2021/05/10 03:06:07;;;;;;;2.30;2.15;;;;;;;;;;5042437;28;20208;-83
2021/05/10 03:08:33;;;;;;;2.53;2.33;;;;;;;;;;5040434;28;20204;-83
2021/05/10 03:10:59;;;;;;;2.23;2.03;;;;;;;;;;5040265;28;20457;-83
2021/05/10 03:13:25;;;;;;;5.20;2.35;;;;;;;;;;5041348;28;20494;-82
2021/05/10 03:15:51;;;;;;;2.37;2.17;;;;;;;;;;5042929;28;20178;-81
2021/05/10 03:18:17;;;;;;;5.57;2.72;;;;;;;;;;5043199;28;20421;-83
2021/05/10 03:20:43;;;;;;;2.70;2.42;;;;;;;;;;5041549;28;20188;-82
2021/05/10 03:23:09;;;;;;;2.30;2.00;;;;;;;;;;5041502;28;20185;-82
2021/05/10 03:25:35;;;;;;;4.03;1.98;;;;;;;;;;5030618;28;20272;-82
2021/05/10 03:28:01;;;;;;;3.58;2.40;;;;;;;;;;5030215;28;20706;-81
2021/05/10 03:30:27;;;;;;;2.17;1.70;;;;;;;;;;5050429;28;20597;-83
2021/05/10 03:32:53;;;;;;;2.50;2.13;;;;;;;;;;5035971;28;20467;-82
2021/05/10 03:35:20;;;;;;;4.20;2.03;;;;;;;;;;5028634;28;20191;-84
2021/05/10 03:37:46;;;;;;;2.03;1.60;;;;;;;;;;5032651;28;20181;-83
2021/05/10 03:40:14;;;;;;;4.30;2.92;;;;;;;;;;5030610;28;20187;-84
2021/05/10 03:42:40;;;;;;;3.38;2.30;;;;;;;;;;5048653;28;20195;-81
2021/05/10 03:45:07;;;;;;;2.88;2.10;;;;;;;;;;5034099;28;20305;-81
2021/05/10 03:47:40;;;;;;;3.83;2.72;;;;;;;;;;5027667;28;20187;-81
2021/05/10 03:50:10;;;;;;;3.38;2.10;;;;;;;;;;5056149;28;20189;-82
2021/05/10 03:52:36;;;;;;;2.42;2.22;;;;;;;;;;5040844;28;20565;-83
2021/05/10 03:55:02;;;;;;;4.22;1.88;;;;;;;;;;5041112;28;20732;-77
2021/05/10 03:57:28;;;;;;;5.05;2.38;;;;;;;;;;5043666;28;20708;-81
2021/05/10 03:59:54;;;;;;;2.50;2.30;;;;;;;;;;5033873;28;20186;-82
2021/05/10 04:02:21;;;;;;;2.53;1.95;;;;;;;;;;5035203;28;20440;-82
2021/05/10 04:05:03;;;;;;;2.83;1.95;;;;;;;;;;5055836;28;20206;-80
2021/05/10 04:15:12;;;;;;;3.45;2.08;;;;;;;;;;5033785;28;20231;-82
2021/05/10 04:17:38;;;;;;;2.70;2.00;;;;;;;;;;5035316;28;20189;-81
2021/05/10 04:20:05;;;;;;;4.55;2.03;;;;;;;;;;5032266;28;20180;-82
2021/05/10 04:22:31;;;;;;;2.35;2.13;;;;;;;;;;5041122;28;20190;-82
2021/05/10 04:24:57;;;;;;;5.20;2.00;;;;;;;;;;5041417;28;20176;-81
2021/05/10 04:27:22;;;;;;;8.33;1.90;;;;;;;;;;5058470;28;20173;-83
2021/05/10 04:29:48;;;;;;;5.03;2.30;;;;;;;;;;5040621;28;20922;-82
2021/05/10 04:32:14;;;;;;;5.30;2.47;;;;;;;;;;5037992;28;20486;-80
2021/05/10 04:34:40;;;;;;;5.28;2.30;;;;;;;;;;5032758;28;20440;-80
2021/05/10 04:37:06;;;;;;;10.05;3.30;;;;;;;;;;5032611;28;20255;-81
2021/05/10 04:39:32;;;;;;;7.67;2.70;;;;;;;;;;5062093;28;20174;-82
2021/05/10 04:41:58;;;;;;;5.30;2.33;;;;;;;;;;5044653;28;20523;-80
2021/05/10 04:44:24;;;;;;;7.20;1.90;;;;;;;;;;5044233;28;20521;-79
2021/05/10 04:46:50;;;;;;;8.27;2.33;;;;;;;;;;5046339;28;20921;-80
2021/05/10 04:49:16;;;;;;;3.63;1.80;;;;;;;;;;5059635;28;20447;-84
2021/05/10 04:51:42;;;;;;;7.13;2.55;;;;;;;;;;5045995;28;20996;-81
2021/05/10 04:54:08;;;;;;;3.22;1.70;;;;;;;;;;5037975;28;20206;-81
2021/05/10 04:56:34;;;;;;;5.00;1.93;;;;;;;;;;5038164;28;20212;-82
2021/05/10 04:59:00;;;;;;;6.53;2.13;;;;;;;;;;5031938;28;20432;-82
2021/05/10 05:01:26;;;;;;;5.97;2.40;;;;;;;;;;5033450;28;20467;-83
2021/05/10 05:03:52;;;;;;;6.87;2.17;;;;;;;;;;5033135;28;20182;-83
2021/05/10 05:06:18;;;;;;;5.60;2.08;;;;;;;;;;5036775;28;20431;-82
2021/05/10 05:08:44;;;;;;;7.57;2.40;;;;;;;;;;5038394;28;20197;-82
2021/05/10 05:11:10;;;;;;;5.80;1.90;;;;;;;;;;5036717;28;20895;-82
2021/05/10 05:13:36;;;;;;;8.90;2.00;;;;;;;;;;5044140;28;20464;-81
2021/05/10 05:16:02;;;;;;;6.85;1.92;;;;;;;;;;5038984;28;20193;-81
2021/05/10 05:18:28;;;;;;;5.33;2.10;;;;;;;;;;5031748;28;20175;-83
2021/05/10 05:20:55;;;;;;;10.83;2.00;;;;;;;;;;5042681;28;20447;-82
2021/05/10 05:23:25;;;;;;;6.20;2.65;;;;;;;;;;5044155;28;20436;-81
2021/05/10 05:26:01;;;;;;;3.97;2.25;;;;;;;;;;5039988;28;20186;-80
2021/05/10 05:28:28;;;;;;;7.47;2.45;;;;;;;;;;5033061;28;20185;-81
2021/05/10 05:30:55;;;;;;;9.20;2.45;;;;;;;;;;5033161;28;20178;-81
2021/05/10 05:33:21;;;;;;;7.22;2.40;;;;;;;;;;5041375;28;20202;-81
2021/05/10 05:35:47;;;;;;;8.93;2.33;;;;;;;;;;5039485;28;20264;-82
2021/05/10 05:38:12;;;;;;;3.50;2.00;;;;;;;;;;5037606;28;21072;-81
2021/05/10 05:40:39;;;;;;;4.40;2.27;;;;;;;;;;5032901;28;20233;-82
2021/05/10 05:43:08;;;;;;;5.25;2.00;;;;;;;;;;5032810;28;20850;-82
2021/05/10 05:45:34;;;;;;;6.25;2.20;;;;;;;;;;5035825;28;20218;-81
2021/05/10 05:48:00;;;;;;;11.38;2.25;;;;;;;;;;5034680;28;20285;-83
2021/05/10 05:50:26;;;;;;;10.90;2.20;;;;;;;;;;5035246;28;20189;-84
2021/05/10 05:52:52;;;;;;;6.47;2.47;;;;;;;;;;5042710;28;20819;-84
2021/05/10 05:55:18;;;;;;;8.43;2.83;;;;;;;;;;5035502;28;20502;-84
2021/05/10 05:57:45;;;;;;;6.47;2.78;;;;;;;;;;5045257;28;20412;-83
2021/05/10 06:00:11;;;;;;;7.68;2.03;;;;;;;;;;5042330;28;20174;-84
2021/05/10 06:02:38;;;;;;;7.03;2.35;;;;;;;;;;5043242;28;20562;-84
2021/05/10 06:05:04;;;;;;;6.63;2.10;;;;;;;;;;5038996;28;20186;-84
2021/05/10 06:07:30;;;;;;;5.50;2.42;;;;;;;;;;5040452;28;20566;-85
2021/05/10 06:09:56;;;;;;;4.25;2.00;;;;;;;;;;5038993;28;20457;-85
2021/05/10 06:12:22;;;;;;;7.47;2.03;;;;;;;;;;5045483;28;20672;-86
2021/05/10 06:14:48;;;;;;;8.73;2.77;;;;;;;;;;5039651;28;20249;-84
2021/05/10 06:17:14;;;;;;;9.43;2.30;;;;;;;;;;5041921;28;20654;-85
2021/05/10 06:19:40;;;;;;;8.75;2.60;;;;;;;;;;5050233;28;20515;-85
2021/05/10 06:22:06;;;;;;;11.75;2.65;;;;;;;;;;5041702;28;20200;-84
2021/05/10 06:24:32;;;;;;;8.55;2.20;;;;;;;;;;5033432;28;20718;-84
2021/05/10 06:26:58;;;;;;;8.00;2.22;;;;;;;;;;5036432;28;20193;-84
2021/05/10 06:29:24;;;;;;;6.55;2.20;;;;;;;;;;5035791;28;20243;-83
2021/05/10 06:31:50;;;;;;;7.18;2.50;;;;;;;;;;5027926;28;20190;-83
2021/05/10 06:34:16;;;;;;;10.32;2.60;;;;;;;;;;5025373;28;20208;-84
2021/05/10 06:36:42;;;;;;;8.97;2.33;;;;;;;;;;5044843;28;20162;-82
2021/05/10 06:39:08;;;;;;;8.97;2.27;;;;;;;;;;5031668;28;20871;-84
2021/05/10 06:41:34;;;;;;;6.32;2.13;;;;;;;;;;5034831;28;20440;-83
2021/05/10 06:44:00;;;;;;;6.60;2.00;;;;;;;;;;5039007;28;20193;-83
2021/05/10 06:46:26;;;;;;;6.80;2.73;;;;;;;;;;5057511;28;20452;-82
2021/05/10 06:48:52;;;;;;;6.63;2.50;;;;;;;;;;5035565;28;20428;-81
2021/05/10 06:51:18;;;;;;;9.20;2.70;;;;;;;;;;5043952;28;20193;-83
2021/05/10 06:53:44;;;;;;;5.63;2.22;;;;;;;;;;5036508;28;20468;-83
2021/05/10 06:56:10;;;;;;;7.53;2.40;;;;;;;;;;5029926;28;20206;-83
2021/05/10 06:58:36;;;;;;;6.57;3.13;;;;;;;;;;5032700;28;20512;-81
2021/05/10 07:01:02;;;;;;;6.87;2.03;;;;;;;;;;5040029;28;20262;-81
2021/05/10 07:03:28;;;;;;;4.32;2.20;;;;;;;;;;5039101;28;20453;-81
2021/05/10 07:05:54;;;;;;;4.95;2.47;;;;;;;;;;5053902;28;20236;-83
2021/05/10 07:08:20;;;;;;;11.47;2.40;;;;;;;;;;5048031;28;20259;-80
2021/05/10 07:10:50;;;;;;;6.85;2.50;;;;;;;;;;5039698;28;20456;-79
2021/05/10 07:13:17;;;;;;;11.07;2.17;;;;;;;;;;5037256;28;20205;-80
2021/05/10 07:15:43;;;;;;;7.18;2.72;;;;;;;;;;5036210;28;20699;-80
2021/05/10 07:18:10;;;;;;;4.63;2.35;;;;;;;;;;5040114;28;20706;-78
2021/05/10 07:20:37;;;;;;;5.55;2.17;;;;;;;;;;5038313;28;20574;-79
2021/05/10 07:23:05;;;;;;;5.35;1.90;;;;;;;;;;5037356;28;20188;-81
2021/05/10 07:25:31;;;;;;;9.75;3.42;;;;;;;;;;5051720;28;20466;-76
2021/05/10 07:27:57;;;;;;;5.43;2.10;;;;;;;;;;5040633;28;20208;-78
2021/05/10 07:30:23;;;;;;;9.63;4.00;;;;;;;;;;5035954;28;20181;-76
2021/05/10 07:32:49;;;;;;;7.53;2.92;;;;;;;;;;5053893;28;20474;-78
2021/05/10 07:35:16;;;;;;;10.20;2.17;;;;;;;;;;5039475;28;20205;-78
2021/05/10 07:37:41;;;;;;;8.75;2.10;;;;;;;;;;5039118;28;20436;-80
2021/05/10 07:40:09;;;;;;;6.22;2.38;;;;;;;;;;5040875;28;20227;-78
2021/05/10 07:42:35;;;;;;;5.57;2.10;;;;;;;;;;5050646;28;20191;-81
2021/05/10 07:45:01;;;;;;;9.35;2.95;;;;;;;;;;5038167;28;20288;-75
2021/05/10 07:47:29;;;;;;;4.10;1.63;;;;;;;;;;5038338;28;20182;-80
2021/05/10 07:49:56;;;;;;;5.90;2.40;;;;;;;;;;5040890;28;20181;-76
2021/05/10 07:52:22;;;;;;;5.55;2.60;;;;;;;;;;5038831;28;20674;-77
2021/05/10 07:54:48;;;;;;;5.38;2.10;;;;;;;;;;5029325;28;20414;-76
2021/05/10 07:57:14;;;;;;;4.60;1.70;;;;;;;;;;5034689;28;20408;-76
2021/05/10 07:59:40;;;;;;;6.00;2.10;;;;;;;;;;5031685;28;20550;-76
2021/05/10 08:02:07;;;;;;;6.37;1.63;;;;;;;;;;5034055;28;20452;-77
2021/05/10 08:04:33;;;;;;;9.23;2.40;;;;;;;;;;5046369;28;20504;-79
2021/05/10 08:06:59;;;;;;;5.95;1.75;;;;;;;;;;5047204;28;20182;-77
2021/05/10 08:09:25;;;;;;;8.13;2.22;;;;;;;;;;5046114;28;20185;-77
2021/05/10 08:11:51;;;;;;;10.35;2.50;;;;;;;;;;5039952;28;20186;-77
2021/05/10 08:14:18;;;;;;;5.28;1.88;;;;;;;;;;5034225;28;20205;-75
2021/05/10 08:16:46;;;;;;;5.43;1.90;;;;;;;;;;5040119;28;20170;-77
2021/05/10 08:19:12;;;;;;;6.97;1.90;;;;;;;;;;5026866;28;20470;-76
2021/05/10 08:21:40;;;;;;;7.15;1.63;;;;;;;;;;5047121;28;20185;-75
2021/05/10 08:24:06;;;;;;;5.50;1.63;;;;;;;;;;5027358;28;20183;-78
2021/05/10 08:26:32;;;;;;;5.88;1.33;;;;;;;;;;5037422;28;20665;-76
2021/05/10 08:28:58;;;;;;;9.60;2.60;;;;;;;;;;5042245;28;20200;-75
2021/05/10 08:31:24;;;;;;;6.20;2.83;;;;;;;;;;5032526;28;20449;-75
2021/05/10 08:33:50;;;;;;;7.07;1.80;;;;;;;;;;5034588;28;20556;-75
2021/05/10 08:36:17;;;;;;;6.07;2.72;;;;;;;;;;5043083;28;20462;-75
2021/05/10 08:38:44;;;;;;;8.52;2.22;;;;;;;;;;5041390;28;20245;-75
2021/05/10 08:41:10;;;;;;;9.45;2.45;;;;;;;;;;5043306;28;20184;-77
2021/05/10 08:43:37;;;;;;;6.25;2.03;;;;;;;;;;5031363;28;20186;-75
2021/05/10 08:46:06;;;;;;;5.45;1.48;;;;;;;;;;5042261;28;20733;-75
2021/05/10 08:48:32;;;;;;;6.53;1.70;;;;;;;;;;5060734;28;20180;-76
2021/05/10 08:50:58;;;;;;;7.43;1.77;;;;;;;;;;5039921;28;20190;-79
2021/05/10 08:53:40;;;;;;;3.47;1.63;;;;;;;;;;5042696;28;20384;-78
2021/05/10 08:56:07;;;;;;;7.45;1.70;;;;;;;;;;5038507;28;20201;-81
2021/05/10 08:58:47;;;;;;;6.07;2.00;;;;;;;;;;5039766;28;20182;-79
2021/05/10 09:01:13;;;;;;;14.10;2.20;;;;;;;;;;5032947;28;20182;-82
2021/05/10 09:03:50;;;;;;;9.02;2.33;;;;;;;;;;5032208;28;20529;-79
2021/05/10 09:06:29;;;;;;;5.68;1.67;;;;;;;;;;5040021;28;20181;-77
2021/05/10 09:09:03;;;;;;;3.17;1.70;;;;;;;;;;5049935;28;20204;-79
2021/05/10 09:11:29;;;;;;;6.22;1.40;;;;;;;;;;5041584;28;20193;-82
2021/05/10 09:13:57;;;;;;;10.48;2.28;;;;;;;;;;5040771;28;20220;-80
2021/05/10 09:16:23;;;;;;;4.07;2.20;;;;;;;;;;5032687;28;20240;-80
2021/05/10 09:18:53;;;;;;;8.65;1.63;;;;;;;;;;5055076;28;20189;-84
2021/05/10 09:21:21;;;;;;;5.75;1.55;;;;;;;;;;5041133;28;20200;-80
2021/05/10 09:23:47;;;;;;;6.85;1.80;;;;;;;;;;5041071;28;20185;-80
2021/05/10 09:26:13;;;;;;;8.40;1.90;;;;;;;;;;5051166;28;20251;-80
2021/05/10 09:28:41;;;;;;;5.93;1.75;;;;;;;;;;5055758;28;20448;-78
2021/05/10 09:31:08;;;;;;;5.50;1.60;;;;;;;;;;5043439;28;20186;-80
2021/05/10 09:33:35;;;;;;;3.72;1.70;;;;;;;;;;5060516;28;20212;-80
2021/05/10 09:36:05;;;;;;;3.85;1.60;;;;;;;;;;5036118;28;20236;-80
2021/05/10 09:38:33;;;;;;;6.15;1.95;;;;;;;;;;5041863;28;20176;-81
2021/05/10 09:41:00;;;;;;;10.15;2.30;;;;;;;;;;5038344;28;20182;-82
2021/05/10 09:43:27;;;;;;;7.47;1.55;;;;;;;;;;5037942;28;20205;-83
2021/05/10 09:45:53;;;;;;;6.57;1.70;;;;;;;;;;5032048;28;20233;-82
2021/05/10 09:48:28;;;;;;;7.05;2.00;;;;;;;;;;5043255;28;20192;-84
2021/05/10 09:50:54;;;;;;;4.22;1.38;;;;;;;;;;5049735;28;20272;-81
2021/05/10 09:53:32;;;;;;;12.67;2.23;;;;;;;;;;5037328;28;20314;-81
2021/05/10 09:55:58;;;;;;;5.85;1.48;;;;;;;;;;5034204;28;20437;-81
2021/05/10 09:58:26;;;;;;;6.68;1.75;;;;;;;;;;5035563;28;20190;-81
2021/05/10 10:00:58;;;;;;;6.40;1.70;;;;;;;;;;5043571;28;20670;-84
2021/05/10 10:03:28;;;;;;;8.85;1.83;;;;;;;;;;5033386;28;20185;-77
2021/05/10 10:05:56;;;;;;;4.88;1.55;;;;;;;;;;5057396;28;20659;-79
2021/05/10 10:08:23;;;;;;;7.20;1.95;;;;;;;;;;5033198;28;20213;-77
2021/05/10 10:10:49;;;;;;;6.78;1.50;;;;;;;;;;5037438;28;20192;-79
2021/05/10 10:13:16;;;;;;;6.95;1.80;;;;;;;;;;5050121;28;20219;-76
2021/05/10 10:15:42;;;;;;;3.20;1.27;;;;;;;;;;5042891;28;20235;-77
2021/05/10 10:18:10;;;;;;;6.57;1.90;;;;;;;;;;5043010;28;20193;-81
2021/05/10 10:20:37;;;;;;;6.53;2.03;;;;;;;;;;5053870;28;20211;-79
2021/05/10 10:23:04;;;;;;;4.32;1.92;;;;;;;;;;5033611;28;20194;-78
2021/05/10 10:25:30;;;;;;;4.00;2.25;;;;;;;;;;5036001;28;20182;-79
2021/05/10 10:27:57;;;;;;;5.80;1.70;;;;;;;;;;5030948;28;20217;-77
2021/05/10 10:30:24;;;;;;;6.15;2.08;;;;;;;;;;5029760;28;20267;-79
2021/05/10 10:32:50;;;;;;;5.20;1.50;;;;;;;;;;5037931;28;20197;-77
2021/05/10 10:35:17;;;;;;;5.35;1.92;;;;;;;;;;5042379;28;20231;-77
2021/05/10 10:37:44;;;;;;;3.53;1.52;;;;;;;;;;5056600;28;20656;-77
2021/05/10 10:40:21;;;;;;;2.95;1.17;;;;;;;;;;5023743;28;20190;-78
2021/05/10 10:42:47;;;;;;;5.13;1.50;;;;;;;;;;5029493;28;20261;-78
2021/05/10 10:45:21;;;;;;;1.88;1.30;;;;;;;;;;5035246;28;20253;-76
2021/05/10 10:47:52;;;;;;;4.72;1.50;;;;;;;;;;5037127;28;20735;-79
2021/05/10 10:50:20;;;;;;;3.42;1.10;;;;;;;;;;5032628;28;20182;-78
2021/05/10 10:52:52;;;;;;;3.55;1.10;;;;;;;;;;5041221;28;20225;-78
2021/05/10 10:55:20;;;;;;;3.25;1.02;;;;;;;;;;5045474;28;20185;-78
2021/05/10 10:57:47;;;;;;;2.30;1.13;;;;;;;;;;5043972;28;20170;-78
2021/05/10 11:00:16;;;;;;;5.13;1.58;;;;;;;;;;5034453;28;20178;-79
2021/05/10 11:02:54;;;;;;;2.97;1.45;;;;;;;;;;5035483;28;20190;-79
2021/05/10 11:05:21;;;;;;;5.28;1.30;;;;;;;;;;5036366;28;20185;-79
2021/05/10 11:07:48;;;;;;;4.53;1.45;;;;;;;;;;5027487;28;20223;-77
2021/05/10 11:10:34;;;;;;;2.83;1.00;;;;;;;;;;5033450;28;20189;-77
2021/05/10 11:13:00;;;;;;;3.22;1.00;;;;;;;;;;5027075;28;20213;-78
2021/05/10 11:15:36;;;;;;;1.80;1.10;;;;;;;;;;5035016;28;20204;-80
2021/05/10 11:18:03;;;;;;;5.90;1.52;;;;;;;;;;5032141;28;20432;-79
2021/05/10 11:20:42;;;;;;;6.57;1.35;;;;;;;;;;5036479;28;20214;-76
2021/05/10 11:23:24;;;;;;;3.58;1.35;;;;;;;;;;5053255;28;20197;-76
2021/05/10 11:25:54;;;;;;;3.50;1.25;;;;;;;;;;5035731;28;20174;-76
2021/05/10 11:28:28;;;;;;;4.25;1.67;;;;;;;;;;5038981;28;20659;-79
2021/05/10 11:31:04;;;;;;;4.85;3.17;;;;;;;;;;5032096;28;20185;-77
2021/05/10 11:33:49;;;;;;;3.85;1.27;;;;;;;;;;5032735;28;20205;-79
2021/05/10 11:36:31;;;;;;;4.28;1.50;;;;;;;;;;5036547;28;20185;-77
2021/05/10 11:38:57;;;;;;;7.88;1.50;;;;;;;;;;5041331;28;20185;-75
2021/05/10 11:41:27;;;;;;;5.50;1.73;;;;;;;;;;5028564;28;20178;-78
2021/05/10 11:43:57;;;;;;;5.30;1.30;;;;;;;;;;5033806;28;20436;-77
2021/05/10 11:46:33;;;;;;;3.70;1.60;;;;;;;;;;5053134;28;20223;-76
2021/05/10 11:48:59;;;;;;;3.03;1.00;;;;;;;;;;5055492;28;20169;-78
2021/05/10 11:51:25;;;;;;;3.40;1.17;;;;;;;;;;5041718;28;20332;-78
2021/05/10 11:54:21;;;;;;;11.40;1.50;;;;;;;;;;5037740;28;20978;-76
2021/05/10 11:56:48;;;;;;;2.78;1.10;;;;;;;;;;5026404;28;20186;-76
2021/05/10 11:59:52;;;;;;;3.90;0.93;;;;;;;;;;5035887;28;20249;-76
2021/05/10 12:02:11;;;;;;;2.92;1.25;;;;;;;;;;5025176;28;20210;-79
2021/05/10 12:04:38;;;;;;;2.85;1.30;;;;;;;;;;5026932;28;20948;-78
2021/05/10 12:07:05;;;;;;;3.55;1.30;;;;;;;;;;5027564;28;20216;-78
2021/05/10 12:09:37;;;;;;;3.80;1.40;;;;;;;;;;5058562;28;20208;-79
2021/05/10 12:12:18;;;;;;;4.68;1.55;;;;;;;;;;5033248;28;20742;-75
2021/05/10 12:14:45;;;;;;;5.50;1.40;;;;;;;;;;5038632;28;20713;-78
2021/05/10 12:17:12;;;;;;;5.90;1.48;;;;;;;;;;5037081;28;20178;-80
2021/05/10 12:19:54;;;;;;;3.55;1.42;;;;;;;;;;5034573;28;20193;-77
2021/05/10 12:22:21;;;;;;;2.97;1.20;;;;;;;;;;5029656;28;20185;-76
2021/05/10 12:24:57;;;;;;;5.55;1.40;;;;;;;;;;5039294;28;20194;-77
2021/05/10 12:27:24;;;;;;;2.97;1.15;;;;;;;;;;5033219;28;20182;-76
2021/05/10 12:29:50;;;;;;;5.13;1.10;;;;;;;;;;5033544;28;20190;-77
2021/05/10 12:32:17;;;;;;;1.93;1.23;;;;;;;;;;5033407;28;20236;-76
2021/05/10 12:34:43;;;;;;;3.10;1.57;;;;;;;;;;5038885;28;20464;-78
2021/05/10 12:37:09;;;;;;;2.47;1.50;;;;;;;;;;5040566;28;20426;-77
2021/05/10 12:39:36;;;;;;;3.47;1.23;;;;;;;;;;5041775;28;20478;-76
2021/05/10 12:42:16;;;;;;;2.80;1.30;;;;;;;;;;5035345;28;20444;-76
2021/05/10 12:44:42;;;;;;;2.73;1.07;;;;;;;;;;5036781;28;20469;-76
2021/05/10 12:47:08;;;;;;;2.90;1.10;;;;;;;;;;5038332;28;20462;-77
2021/05/10 12:49:43;;;;;;;3.83;1.50;;;;;;;;;;5038105;28;20904;-76
2021/05/10 12:52:08;;;;;;;3.40;1.57;;;;;;;;;;5028402;28;20833;-77
2021/05/10 12:54:41;;;;;;;4.00;1.30;;;;;;;;;;5042029;28;20526;-77
2021/05/10 12:57:07;;;;;;;7.10;1.10;;;;;;;;;;5039662;28;20463;-77
2021/05/10 12:59:47;;;;;;;2.70;1.17;;;;;;;;;;5040761;28;20461;-77
2021/05/10 13:02:20;;;;;;;3.10;1.20;;;;;;;;;;5036053;28;20421;-76
2021/05/10 13:04:47;;;;;;;2.90;1.10;;;;;;;;;;5053158;28;20449;-77
2021/05/10 13:07:13;;;;;;;5.30;1.87;;;;;;;;;;5040606;28;20502;-77
2021/05/10 13:09:39;;;;;;;2.50;1.30;;;;;;;;;;5045267;28;20466;-78
2021/05/10 13:12:09;;;;;;;5.93;1.50;;;;;;;;;;5038049;28;20191;-79
2021/05/10 13:14:43;;;;;;;3.90;1.30;;;;;;;;;;5034595;28;20450;-77
2021/05/10 13:33:29;;;;;;;3.47;1.53;;;;;;;;;;5037495;28;20443;-76
2021/05/10 13:36:03;;;;;;;3.07;1.47;;;;;;;;;;5039676;28;20474;-79
2021/05/10 13:38:30;;;;;;;5.20;1.27;;;;;;;;;;5037034;28;20459;-78
2021/05/10 13:40:56;;;;;;;2.87;1.37;;;;;;;;;;5032706;28;20414;-75
2021/05/10 13:43:31;;;;;;;3.53;0.90;;;;;;;;;;5038574;28;20472;-78
2021/05/10 13:46:02;;;;;;;1.73;0.90;;;;;;;;;;5043860;28;20435;-77
2021/05/10 13:48:29;;;;;;;3.40;1.50;;;;;;;;;;5041783;28;20423;-76
2021/05/10 13:50:55;;;;;;;3.37;1.00;;;;;;;;;;5038710;28;20451;-78
2021/05/10 13:53:21;;;;;;;2.30;1.00;;;;;;;;;;5042557;28;20442;-76
2021/05/10 13:55:47;;;;;;;2.00;1.38;;;;;;;;;;5037386;28;20448;-77
2021/05/10 13:58:13;;;;;;;3.53;1.23;;;;;;;;;;5034290;28;20190;-75
2021/05/10 14:00:39;;;;;;;4.40;1.37;;;;;;;;;;5041655;28;20960;-77
2021/05/10 14:03:05;;;;;;;6.00;1.33;;;;;;;;;;5031852;28;20456;-77
2021/05/10 14:05:35;;;;;;;3.30;1.07;;;;;;;;;;5029839;28;20453;-75
2021/05/10 14:08:01;;;;;;;5.13;1.50;;;;;;;;;;5053036;28;20444;-76
2021/05/10 14:10:27;;;;;;;4.63;1.88;;;;;;;;;;5035896;28;20183;-76
2021/05/10 14:12:53;;;;;;;5.23;1.10;;;;;;;;;;5042899;28;20603;-77
2021/05/10 14:15:19;;;;;;;2.30;0.80;;;;;;;;;;5042040;28;20463;-76
2021/05/10 14:17:45;;;;;;;3.70;1.30;;;;;;;;;;5040341;28;20464;-76
2021/05/10 14:20:13;;;;;;;4.07;1.13;;;;;;;;;;5033891;28;20441;-76
2021/05/10 14:22:39;;;;;;;4.20;1.17;;;;;;;;;;5042738;28;20182;-76
2021/05/10 14:25:06;;;;;;;4.93;1.38;;;;;;;;;;5040589;28;20187;-77
2021/05/10 14:27:33;;;;;;;3.60;1.60;;;;;;;;;;5036531;28;20176;-75
2021/05/10 14:30:00;;;;;;;3.28;1.73;;;;;;;;;;5034900;28;20183;-76
2021/05/10 14:32:26;;;;;;;7.80;1.38;;;;;;;;;;5033512;28;20289;-77
2021/05/10 14:34:52;;;;;;;3.40;1.30;;;;;;;;;;5042877;28;20210;-77
2021/05/10 14:37:19;;;;;;;4.30;1.27;;;;;;;;;;5041443;28;20178;-76
2021/05/10 14:39:45;;;;;;;5.05;1.80;;;;;;;;;;5033169;28;20429;-77
2021/05/10 14:42:11;;;;;;;4.85;1.30;;;;;;;;;;5039921;28;20187;-76
2021/05/10 14:44:37;;;;;;;3.08;1.20;;;;;;;;;;5025460;28;20226;-76
2021/05/10 14:47:03;;;;;;;3.65;1.20;;;;;;;;;;5032561;28;20266;-76
2021/05/10 14:49:29;;;;;;;3.70;1.30;;;;;;;;;;5040789;28;20185;-77
2021/05/10 14:51:55;;;;;;;2.97;1.15;;;;;;;;;;5034870;28;20182;-77
2021/05/10 14:54:21;;;;;;;2.83;1.23;;;;;;;;;;5036280;28;20206;-79
2021/05/10 14:56:47;;;;;;;3.83;1.10;;;;;;;;;;5040812;28;20182;-78
2021/05/10 14:59:13;;;;;;;2.88;1.23;;;;;;;;;;5051966;28;20445;-82
2021/05/10 15:01:39;;;;;;;4.00;1.30;;;;;;;;;;5030884;28;20248;-80
2021/05/10 15:04:07;;;;;;;2.80;1.65;;;;;;;;;;5036721;28;20644;-76
2021/05/10 15:06:33;;;;;;;2.22;1.13;;;;;;;;;;5033671;28;20637;-79
2021/05/10 15:08:59;;;;;;;2.37;1.33;;;;;;;;;;5037287;28;20190;-78